If you wish to contribute or participate in the discussions about articles you are invited to join SKYbrary as a registered user

 Actions

Minsk International Airport

From SKYbrary Wiki

UMMS
Airport
ICAO: UMMS – IATA: MSQ
Summary
Name Minsk International Airport
Region Europe
Territory
Location Vykacheno, Smalyavichy Raion
Serving Minsk
Elevation 203.911 m <br />669 ft203.911 m <br />
Coordinates 53° 53' 18.78" N, 28° 2' 9.24" E
Runways
Designator Length Width Surface ROPS
13/31 3641 m11,945.538 ft <br /> 60 m196.85 ft <br /> CON yes/yes


METAR
Observation UMMS 150841Z 19003MPS 160V220 9999 BKN013 16/12 Q1006 R13L/CLRD// R13R/////// NOSIG
Station Minsk
Date/Time 15 May 2021 08:41:00
Wind direction 190°
Wind speed kts
Lowest cloud amount broken clouds
Temperature 16°C
Dew point 12°C
Humidity 77%
QNH 1006 hPa
Weather condition n/a

Minsk National Airport (formerly known as Minsk-2) is the main international airport in Belarus, located 25nm46,300 m <br />46.3 km <br />151,902.887 ft <br /> to the east of the capital Minsk.

Climatology

Humid Continental climate (Köppen climate classification Dfb)

Maps

Terrain

Loading map...

Airport Layout

Loading map...


Accidents & Serious Incidents at or in vicinity of UMMS

None on SKYbrary